Time;durP1;ratioP1;P1;durP2;ratioP2;P2;SDS_P1;SDS_P2;PMS_P1;PMS_P2;Temp;Humidity;BMP_temperature;BMP_pressure;BME280_temperature;BME280_humidity;BME280_pressure;Samples;Min_cycle;Max_cycle;Signal;HPM_P1;HPM_P2
2023/06/18 00:01:45;;;;;;;0.00;0.00;;;16.60;99.90;;;;;;5060291;28;20025;-82
2023/06/18 00:04:19;;;;;;;0.00;0.00;;;16.50;99.90;;;;;;5053422;28;20048;-82
2023/06/18 00:06:58;;;;;;;0.00;0.00;;;16.50;99.90;;;;;;5052264;28;20081;-81
2023/06/18 00:09:29;;;;;;;0.00;0.00;;;16.50;99.90;;;;;;5055122;28;20029;-82
2023/06/18 01:14:09;;;;;;;0.00;0.00;;;15.50;99.90;;;;;;5215781;23;20041;-82
2023/06/18 01:16:47;;;;;;;0.03;0.03;;;15.30;99.90;;;;;;5043361;28;20090;-80
2023/06/18 01:19:41;;;;;;;0.00;0.00;;;15.40;99.90;;;;;;5050449;28;20049;-80
2023/06/18 01:22:28;;;;;;;0.00;0.00;;;15.40;99.90;;;;;;5023765;28;20051;-79
2023/06/18 01:24:58;;;;;;;0.00;0.00;;;15.30;99.90;;;;;;5063825;28;20128;-81
2023/06/18 01:27:33;;;;;;;0.22;0.22;;;15.40;99.90;;;;;;5055879;28;20029;-81
2023/06/18 01:30:31;;;;;;;0.00;0.00;;;15.40;99.90;;;;;;5062019;28;20040;-82
2023/06/18 01:33:03;;;;;;;0.00;0.00;;;15.40;99.90;;;;;;5059178;28;20048;-82
2023/06/18 01:35:30;;;;;;;0.00;0.00;;;15.40;99.90;;;;;;5073204;28;20097;-82
2023/06/18 01:38:24;;;;;;;0.00;0.00;;;15.30;99.90;;;;;;5074819;28;20029;-81
2023/06/18 01:41:11;;;;;;;0.00;0.00;;;15.30;99.90;;;;;;5074461;28;20018;-82
2023/06/18 01:43:55;;;;;;;0.00;0.00;;;15.30;99.90;;;;;;5057719;28;20017;-81
2023/06/18 01:46:28;;;;;;;0.00;0.00;;;15.30;99.90;;;;;;5059746;28;20032;-82
2023/06/18 01:49:03;;;;;;;0.10;0.10;;;15.30;99.90;;;;;;5058511;28;20064;-81
2023/06/18 01:51:52;;;;;;;0.00;0.00;;;15.30;99.90;;;;;;5058367;28;20066;-81
2023/06/18 01:54:33;;;;;;;0.00;0.00;;;15.30;99.90;;;;;;5073733;28;20077;-81
2023/06/18 01:57:00;;;;;;;0.00;0.00;;;15.30;99.90;;;;;;5072315;28;20028;-81
2023/06/18 01:59:30;;;;;;;0.00;0.00;;;15.30;99.90;;;;;;5058771;28;20010;-82
2023/06/18 02:01:57;;;;;;;0.00;0.00;;;15.30;99.90;;;;;;5043750;28;20090;-82
2023/06/18 02:04:25;;;;;;;0.00;0.00;;;15.30;99.90;;;;;;5059660;28;20055;-81
2023/06/18 02:06:56;;;;;;;0.00;0.00;;;15.30;99.90;;;;;;5073469;28;20045;-81
2023/06/18 02:09:31;;;;;;;0.00;0.00;;;15.30;99.90;;;;;;5058211;28;20040;-81
2023/06/18 02:12:24;;;;;;;0.00;0.00;;;15.30;99.90;;;;;;5056977;28;20048;-83
2023/06/18 02:14:59;;;;;;;0.43;0.43;;;15.30;99.90;;;;;;5066345;28;20049;-81
2023/06/18 02:17:32;;;;;;;0.32;0.20;;;15.30;99.90;;;;;;5071377;28;20001;-81
2023/06/18 02:20:00;;;;;;;0.00;0.00;;;15.30;99.90;;;;;;5058107;28;20067;-82
2023/06/18 02:22:28;;;;;;;0.00;0.00;;;15.30;99.90;;;;;;5065773;28;20089;-81
2023/06/18 02:25:00;;;;;;;0.00;0.00;;;15.30;99.90;;;;;;5057269;28;20067;-82
2023/06/18 02:27:38;;;;;;;0.03;0.03;;;15.40;99.90;;;;;;5071635;28;20036;-82
2023/06/18 02:30:18;;;;;;;0.10;0.08;;;15.40;99.90;;;;;;5047388;28;20037;-80
2023/06/18 02:32:48;;;;;;;0.00;0.00;;;15.40;99.90;;;;;;5038683;28;20029;-80
2023/06/18 02:35:30;;;;;;;0.00;0.00;;;15.30;99.90;;;;;;5056960;28;20010;-81
2023/06/18 02:38:02;;;;;;;0.00;0.00;;;15.40;99.90;;;;;;5044879;28;20125;-81
2023/06/18 02:40:34;;;;;;;0.00;0.00;;;15.50;99.90;;;;;;5060442;28;20039;-81
2023/06/18 02:43:10;;;;;;;0.00;0.00;;;15.50;99.90;;;;;;5049566;28;20029;-81
2023/06/18 02:45:37;;;;;;;0.00;0.00;;;15.60;99.90;;;;;;5045036;28;20041;-81
2023/06/18 02:48:18;;;;;;;0.00;0.00;;;15.60;99.90;;;;;;5043213;28;20442;-81
2023/06/18 02:50:49;;;;;;;0.00;0.00;;;15.60;99.90;;;;;;5059337;28;20049;-81
2023/06/18 02:53:15;;;;;;;0.00;0.00;;;15.60;99.90;;;;;;5046855;28;20018;-80
2023/06/18 02:55:47;;;;;;;0.00;0.00;;;15.60;99.90;;;;;;5049279;28;20462;-81
2023/06/18 02:58:28;;;;;;;0.47;0.20;;;15.60;99.90;;;;;;5050094;28;20022;-81
2023/06/18 03:01:06;;;;;;;0.00;0.00;;;15.60;99.90;;;;;;5064554;28;20025;-82
2023/06/18 03:03:33;;;;;;;0.00;0.00;;;15.60;99.90;;;;;;5055667;28;20025;-82
2023/06/18 03:05:58;;;;;;;0.00;0.00;;;15.60;99.90;;;;;;5073237;28;20020;-81
2023/06/18 03:08:27;;;;;;;0.00;0.00;;;15.50;99.90;;;;;;5045426;28;20041;-80
2023/06/18 03:10:54;;;;;;;0.00;0.00;;;15.50;99.90;;;;;;5030218;28;20021;-80
2023/06/18 03:13:24;;;;;;;0.00;0.00;;;15.50;99.90;;;;;;5046939;28;20041;-80
2023/06/18 03:15:58;;;;;;;0.10;0.10;;;15.40;99.90;;;;;;5031380;28;20053;-80
2023/06/18 03:18:24;;;;;;;0.00;0.00;;;15.40;99.90;;;;;;5030194;28;20074;-79
2023/06/18 03:21:12;;;;;;;0.05;0.05;;;15.40;99.90;;;;;;5067503;28;20041;-81
2023/06/18 03:23:41;;;;;;;0.00;0.00;;;15.40;99.90;;;;;;5069209;28;20049;-82
2023/06/18 03:26:17;;;;;;;0.00;0.00;;;15.40;99.90;;;;;;5057093;28;20048;-83
2023/06/18 03:28:53;;;;;;;0.05;0.00;;;15.50;99.90;;;;;;5072130;28;20056;-82
2023/06/18 03:31:21;;;;;;;0.00;0.00;;;15.50;99.90;;;;;;5056964;28;20021;-82
2023/06/18 03:33:52;;;;;;;0.00;0.00;;;15.50;99.90;;;;;;5059275;28;20032;-82
2023/06/18 03:44:05;;;;;;;0.00;0.00;;;15.60;99.90;;;;;;5460267;23;20061;-80
2023/06/18 03:46:35;;;;;;;0.00;0.00;;;15.70;99.90;;;;;;5052626;28;20032;-82
2023/06/18 03:49:04;;;;;;;0.00;0.00;;;15.70;99.90;;;;;;5059388;28;20112;-82
2023/06/18 03:51:47;;;;;;;0.00;0.00;;;15.80;99.90;;;;;;5055752;28;20017;-83
2023/06/18 03:54:20;;;;;;;0.00;0.00;;;15.90;99.90;;;;;;5035012;28;20065;-80
2023/06/18 03:56:53;;;;;;;0.00;0.00;;;16.00;99.90;;;;;;5036551;28;20029;-79
2023/06/18 03:59:19;;;;;;;0.00;0.00;;;16.20;99.90;;;;;;5028737;28;20156;-69
2023/06/18 04:01:51;;;;;;;0.00;0.00;;;16.30;99.90;;;;;;5030658;28;20116;-70
2023/06/18 04:04:17;;;;;;;0.00;0.00;;;16.40;99.90;;;;;;5018369;28;21004;-70
2023/06/18 04:06:52;;;;;;;0.00;0.00;;;16.40;99.90;;;;;;5016567;28;20025;-77
2023/06/18 04:09:22;;;;;;;0.00;0.00;;;16.50;99.90;;;;;;5013641;28;20041;-77
2023/06/18 04:11:49;;;;;;;0.00;0.00;;;16.60;99.90;;;;;;5037430;28;20029;-76
2023/06/18 04:14:22;;;;;;;0.00;0.00;;;16.60;99.90;;;;;;5017627;28;20490;-76
2023/06/18 04:16:47;;;;;;;0.00;0.00;;;16.70;99.90;;;;;;5030990;28;20128;-77
2023/06/18 04:19:13;;;;;;;0.13;0.13;;;16.70;99.90;;;;;;5017688;28;20148;-76
2023/06/18 04:21:39;;;;;;;0.00;0.00;;;16.70;99.90;;;;;;5022339;28;20117;-76
2023/06/18 04:24:05;;;;;;;0.00;0.00;;;16.80;99.90;;;;;;5032349;28;21518;-77
2023/06/18 04:26:30;;;;;;;0.00;0.00;;;16.80;99.90;;;;;;5018083;28;20033;-77
2023/06/18 04:29:00;;;;;;;0.00;0.00;;;16.80;99.90;;;;;;5022345;28;20017;-76
2023/06/18 04:31:26;;;;;;;0.00;0.00;;;16.80;99.90;;;;;;5031573;28;20026;-77
2023/06/18 04:34:07;;;;;;;0.00;0.00;;;16.90;99.90;;;;;;5015190;28;20639;-77
2023/06/18 04:36:33;;;;;;;0.00;0.00;;;17.10;99.90;;;;;;5036991;28;20026;-77
2023/06/18 04:38:59;;;;;;;0.00;0.00;;;17.20;99.90;;;;;;5017937;28;20014;-76
